Ana Sayfa
METAR-TAF:

METAR-TAF

Havaalanları :

Alice, Teksas, Amerika Birleşik Devletleri

Enlem: 27-44-28N, Boylam: 098-01-37W, yükseklik: 54 m

Güncel hava durumu gözlemi

Rapor saat 21:53 UTC de 19 dakika önce yapıldı.
Rüzgar kuzeydan 8 kt
Sıcaklık 24°C
Nem 41%
Basınç 1014 hPa
Görüş mesafesi: 16.1 km
Açık gökyüzü

METAR: KALI 232153Z AUTO 01008KT 10SM CLR 24/10 A2994 RMK AO2 SLP135 T02390100

Saat: 16:12 (22:12 UTC)

Tahmin

Rapor saat 17:20 UTC de 4 saat ve 52 dakika önce yapıldı.
Ayın 23'si saat 18 UTC'den ayın 24'si saat 18 UTC'ye kadar geçerli Tahmin
Rüzgar kuzey/kuzeybatıdan 10 kt
Görüş mesafesi: 10 km
Açık gökyüzü
Ayın 24'si saat 0200 UTC'den
Rüzgar kuzey/kuzeydoğudan 5 kt
Görüş mesafesi: 10 km
Açık gökyüzü

TAF: KALI 231720Z 2318/2418 33010KT P6SM SKC FM240200 02005KT P6SM SKC

4.000'den fazla havaalanı için hava durumu gözlemleri ve tahminleri (METAR ve TAF raporları).

Kullanılabilir istasyonlar harita üzerinde sarı ve kırmızı noktalarla gösterilir.

İstasyonun adını görmek için fareyi noktanın üzerinde gezdirin.

Sonrasında hava gözlem ve tahminlerini görmek için tıklayın.

Haritayı değiştirmek için: yaklaştırmak için siyah artı işaretli yeşil düğmeye ve uzaklaştırmak için de eksi işaretli düğmeye hızla tıklayın; bitişik haritalar için yeşil okları kullanın.


METAR-TAF: